sensor_id;sensor_type;location;lat;lon;timestamp;temperature;humidity
12827;DHT22;66927;48.812;9.118;2023-03-23T00:01:08;14.60;86.50
12827;DHT22;66927;48.812;9.118;2023-03-23T00:03:39;14.60;86.70
12827;DHT22;66927;48.812;9.118;2023-03-23T00:06:05;14.60;86.80
12827;DHT22;66927;48.812;9.118;2023-03-23T00:08:36;14.50;87.20
12827;DHT22;66927;48.812;9.118;2023-03-23T00:11:19;14.50;87.50
12827;DHT22;66927;48.812;9.118;2023-03-23T00:13:47;14.50;87.50
12827;DHT22;66927;48.812;9.118;2023-03-23T00:16:13;14.50;87.30
12827;DHT22;66927;48.812;9.118;2023-03-23T00:18:47;14.60;87.30
12827;DHT22;66927;48.812;9.118;2023-03-23T00:21:13;14.60;87.40
12827;DHT22;66927;48.812;9.118;2023-03-23T00:23:39;14.50;88.20
12827;DHT22;66927;48.812;9.118;2023-03-23T00:26:05;14.50;88.10
12827;DHT22;66927;48.812;9.118;2023-03-23T00:28:32;14.50;88.20
12827;DHT22;66927;48.812;9.118;2023-03-23T00:30:59;14.40;88.40
12827;DHT22;66927;48.812;9.118;2023-03-23T00:33:31;14.50;88.40
12827;DHT22;66927;48.812;9.118;2023-03-23T00:35:59;14.40;88.70
12827;DHT22;66927;48.812;9.118;2023-03-23T00:38:25;14.50;89.00
12827;DHT22;66927;48.812;9.118;2023-03-23T00:40:50;14.40;88.90
12827;DHT22;66927;48.812;9.118;2023-03-23T00:43:18;14.40;89.20
12827;DHT22;66927;48.812;9.118;2023-03-23T00:45:44;14.50;89.70
12827;DHT22;66927;48.812;9.118;2023-03-23T00:48:11;14.50;89.10
12827;DHT22;66927;48.812;9.118;2023-03-23T00:50:40;14.50;89.00
12827;DHT22;66927;48.812;9.118;2023-03-23T00:53:06;14.60;89.30
12827;DHT22;66927;48.812;9.118;2023-03-23T00:55:32;14.60;89.10
12827;DHT22;66927;48.812;9.118;2023-03-23T00:57:59;14.60;88.80
12827;DHT22;66927;48.812;9.118;2023-03-23T01:00:25;14.60;88.90
12827;DHT22;66927;48.812;9.118;2023-03-23T01:02:53;14.60;88.80
12827;DHT22;66927;48.812;9.118;2023-03-23T01:05:19;14.60;88.60
12827;DHT22;66927;48.812;9.118;2023-03-23T01:07:45;14.60;88.60
12827;DHT22;66927;48.812;9.118;2023-03-23T01:10:11;14.60;88.70
12827;DHT22;66927;48.812;9.118;2023-03-23T01:12:39;14.50;88.80
12827;DHT22;66927;48.812;9.118;2023-03-23T01:15:05;14.50;88.70
12827;DHT22;66927;48.812;9.118;2023-03-23T01:17:31;14.50;88.60
12827;DHT22;66927;48.812;9.118;2023-03-23T01:19:57;14.60;88.50
12827;DHT22;66927;48.812;9.118;2023-03-23T01:22:23;14.60;88.20
12827;DHT22;66927;48.812;9.118;2023-03-23T01:24:49;14.60;88.30
12827;DHT22;66927;48.812;9.118;2023-03-23T01:27:15;14.60;88.50
12827;DHT22;66927;48.812;9.118;2023-03-23T01:29:40;14.60;88.40
12827;DHT22;66927;48.812;9.118;2023-03-23T01:32:06;14.50;88.80
12827;DHT22;66927;48.812;9.118;2023-03-23T01:34:32;14.50;88.60
12827;DHT22;66927;48.812;9.118;2023-03-23T01:36:57;14.60;88.90
12827;DHT22;66927;48.812;9.118;2023-03-23T01:39:23;14.60;88.80
12827;DHT22;66927;48.812;9.118;2023-03-23T01:41:49;14.60;88.90
12827;DHT22;66927;48.812;9.118;2023-03-23T01:46:44;14.50;88.80
12827;DHT22;66927;48.812;9.118;2023-03-23T01:49:16;14.60;88.60
12827;DHT22;66927;48.812;9.118;2023-03-23T01:51:49;14.60;88.30
12827;DHT22;66927;48.812;9.118;2023-03-23T01:54:18;14.50;88.70
12827;DHT22;66927;48.812;9.118;2023-03-23T01:57:02;14.40;88.80
12827;DHT22;66927;48.812;9.118;2023-03-23T01:59:30;14.40;89.00
12827;DHT22;66927;48.812;9.118;2023-03-23T02:01:57;14.50;88.60
12827;DHT22;66927;48.812;9.118;2023-03-23T02:04:25;14.50;88.30
12827;DHT22;66927;48.812;9.118;2023-03-23T02:06:52;14.40;88.70
12827;DHT22;66927;48.812;9.118;2023-03-23T02:09:18;14.40;88.30
12827;DHT22;66927;48.812;9.118;2023-03-23T02:11:45;14.40;88.70
12827;DHT22;66927;48.812;9.118;2023-03-23T02:14:12;14.40;88.40
12827;DHT22;66927;48.812;9.118;2023-03-23T02:22:34;14.40;88.00
12827;DHT22;66927;48.812;9.118;2023-03-23T02:25:25;14.40;88.50
12827;DHT22;66927;48.812;9.118;2023-03-23T02:28:04;14.40;89.00
12827;DHT22;66927;48.812;9.118;2023-03-23T02:30:46;14.40;89.10
12827;DHT22;66927;48.812;9.118;2023-03-23T02:33:27;14.40;89.40
12827;DHT22;66927;48.812;9.118;2023-03-23T02:36:19;14.40;89.50
12827;DHT22;66927;48.812;9.118;2023-03-23T02:39:15;14.40;90.10
12827;DHT22;66927;48.812;9.118;2023-03-23T02:41:47;14.40;90.00
12827;DHT22;66927;48.812;9.118;2023-03-23T02:44:15;14.40;90.10
12827;DHT22;66927;48.812;9.118;2023-03-23T02:46:42;14.30;90.30
12827;DHT22;66927;48.812;9.118;2023-03-23T02:49:12;14.20;90.40
12827;DHT22;66927;48.812;9.118;2023-03-23T02:51:40;14.20;90.40
12827;DHT22;66927;48.812;9.118;2023-03-23T02:54:07;14.20;90.40
12827;DHT22;66927;48.812;9.118;2023-03-23T02:56:33;14.20;90.60
12827;DHT22;66927;48.812;9.118;2023-03-23T02:59:00;14.20;90.60
12827;DHT22;66927;48.812;9.118;2023-03-23T03:03:56;14.20;90.60
12827;DHT22;66927;48.812;9.118;2023-03-23T03:06:27;14.20;90.50
12827;DHT22;66927;48.812;9.118;2023-03-23T03:11:31;14.20;90.60
12827;DHT22;66927;48.812;9.118;2023-03-23T03:14:02;14.10;90.50
12827;DHT22;66927;48.812;9.118;2023-03-23T03:17:00;14.20;90.50
12827;DHT22;66927;48.812;9.118;2023-03-23T03:19:31;14.20;90.40
12827;DHT22;66927;48.812;9.118;2023-03-23T03:21:59;14.20;90.50
12827;DHT22;66927;48.812;9.118;2023-03-23T03:24:28;14.20;90.40
12827;DHT22;66927;48.812;9.118;2023-03-23T03:26:56;14.20;90.30
12827;DHT22;66927;48.812;9.118;2023-03-23T03:29:28;14.30;90.20
12827;DHT22;66927;48.812;9.118;2023-03-23T03:31:56;14.20;90.30
12827;DHT22;66927;48.812;9.118;2023-03-23T03:34:24;14.20;90.50
12827;DHT22;66927;48.812;9.118;2023-03-23T03:36:51;14.30;90.40
12827;DHT22;66927;48.812;9.118;2023-03-23T03:39:17;14.30;90.30
12827;DHT22;66927;48.812;9.118;2023-03-23T03:41:45;14.30;90.30
12827;DHT22;66927;48.812;9.118;2023-03-23T03:44:11;14.30;90.30
12827;DHT22;66927;48.812;9.118;2023-03-23T03:49:13;14.30;90.20
12827;DHT22;66927;48.812;9.118;2023-03-23T03:51:39;14.40;90.30
12827;DHT22;66927;48.812;9.118;2023-03-23T03:54:05;14.30;90.20
12827;DHT22;66927;48.812;9.118;2023-03-23T03:56:31;14.30;90.30
12827;DHT22;66927;48.812;9.118;2023-03-23T03:59:01;14.30;90.30
12827;DHT22;66927;48.812;9.118;2023-03-23T04:01:27;14.40;90.30
12827;DHT22;66927;48.812;9.118;2023-03-23T04:03:54;14.40;90.10
12827;DHT22;66927;48.812;9.118;2023-03-23T04:06:20;14.40;90.30
12827;DHT22;66927;48.812;9.118;2023-03-23T04:08:46;14.40;90.30
12827;DHT22;66927;48.812;9.118;2023-03-23T04:11:14;14.40;90.20
12827;DHT22;66927;48.812;9.118;2023-03-23T04:13:40;14.40;90.50
12827;DHT22;66927;48.812;9.118;2023-03-23T04:16:06;14.40;90.50
12827;DHT22;66927;48.812;9.118;2023-03-23T04:18:33;14.40;90.60
12827;DHT22;66927;48.812;9.118;2023-03-23T04:21:00;14.30;90.80
12827;DHT22;66927;48.812;9.118;2023-03-23T04:23:28;14.40;90.60
12827;DHT22;66927;48.812;9.118;2023-03-23T04:25:59;14.30;90.70
12827;DHT22;66927;48.812;9.118;2023-03-23T04:28:25;14.30;90.70
12827;DHT22;66927;48.812;9.118;2023-03-23T04:30:52;14.40;90.60
12827;DHT22;66927;48.812;9.118;2023-03-23T04:33:25;14.40;90.60
12827;DHT22;66927;48.812;9.118;2023-03-23T04:35:56;14.40;90.70
12827;DHT22;66927;48.812;9.118;2023-03-23T04:38:23;14.40;90.70
12827;DHT22;66927;48.812;9.118;2023-03-23T04:40:52;14.40;90.80
12827;DHT22;66927;48.812;9.118;2023-03-23T04:43:19;14.40;90.70
12827;DHT22;66927;48.812;9.118;2023-03-23T04:45:56;14.40;90.70
12827;DHT22;66927;48.812;9.118;2023-03-23T04:48:25;14.40;90.80
12827;DHT22;66927;48.812;9.118;2023-03-23T04:50:52;14.40;90.70
12827;DHT22;66927;48.812;9.118;2023-03-23T04:53:18;14.30;90.90
12827;DHT22;66927;48.812;9.118;2023-03-23T04:55:44;14.40;90.80
12827;DHT22;66927;48.812;9.118;2023-03-23T04:58:11;14.30;90.70
12827;DHT22;66927;48.812;9.118;2023-03-23T05:00:40;14.30;90.80
12827;DHT22;66927;48.812;9.118;2023-03-23T05:03:10;14.30;90.80
12827;DHT22;66927;48.812;9.118;2023-03-23T05:05:35;14.30;90.70
12827;DHT22;66927;48.812;9.118;2023-03-23T05:08:01;14.40;90.70
12827;DHT22;66927;48.812;9.118;2023-03-23T05:10:27;14.40;90.70
12827;DHT22;66927;48.812;9.118;2023-03-23T05:12:54;14.30;90.80
12827;DHT22;66927;48.812;9.118;2023-03-23T05:15:20;14.30;90.80
12827;DHT22;66927;48.812;9.118;2023-03-23T05:17:45;14.40;90.50
12827;DHT22;66927;48.812;9.118;2023-03-23T05:20:13;14.40;90.40
12827;DHT22;66927;48.812;9.118;2023-03-23T05:22:41;14.40;90.40
12827;DHT22;66927;48.812;9.118;2023-03-23T05:25:08;14.50;90.40
12827;DHT22;66927;48.812;9.118;2023-03-23T05:27:37;14.40;90.30
12827;DHT22;66927;48.812;9.118;2023-03-23T05:30:05;14.40;90.40
12827;DHT22;66927;48.812;9.118;2023-03-23T05:32:32;14.50;90.40
12827;DHT22;66927;48.812;9.118;2023-03-23T05:34:59;14.50;90.30
12827;DHT22;66927;48.812;9.118;2023-03-23T05:37:26;14.50;90.20
12827;DHT22;66927;48.812;9.118;2023-03-23T05:39:54;14.50;90.50
12827;DHT22;66927;48.812;9.118;2023-03-23T05:42:22;14.40;90.50
12827;DHT22;66927;48.812;9.118;2023-03-23T05:44:48;14.40;90.50
12827;DHT22;66927;48.812;9.118;2023-03-23T05:47:14;14.50;90.40
12827;DHT22;66927;48.812;9.118;2023-03-23T05:49:40;14.50;90.40
12827;DHT22;66927;48.812;9.118;2023-03-23T05:52:06;14.50;90.40
12827;DHT22;66927;48.812;9.118;2023-03-23T05:54:32;14.50;90.40
12827;DHT22;66927;48.812;9.118;2023-03-23T05:56:59;14.40;90.50
12827;DHT22;66927;48.812;9.118;2023-03-23T05:59:25;14.40;90.50
12827;DHT22;66927;48.812;9.118;2023-03-23T06:01:51;14.50;90.50
12827;DHT22;66927;48.812;9.118;2023-03-23T06:04:19;14.50;90.40
12827;DHT22;66927;48.812;9.118;2023-03-23T06:06:46;14.60;90.30
12827;DHT22;66927;48.812;9.118;2023-03-23T06:09:11;14.50;90.40
12827;DHT22;66927;48.812;9.118;2023-03-23T06:11:37;14.60;90.40
12827;DHT22;66927;48.812;9.118;2023-03-23T06:14:03;14.60;90.40
12827;DHT22;66927;48.812;9.118;2023-03-23T06:16:29;14.70;90.40
12827;DHT22;66927;48.812;9.118;2023-03-23T06:18:54;14.60;90.30
12827;DHT22;66927;48.812;9.118;2023-03-23T06:21:22;14.70;90.30
12827;DHT22;66927;48.812;9.118;2023-03-23T06:23:48;14.60;90.40
12827;DHT22;66927;48.812;9.118;2023-03-23T06:26:15;14.50;90.50
12827;DHT22;66927;48.812;9.118;2023-03-23T06:28:42;14.50;90.60
12827;DHT22;66927;48.812;9.118;2023-03-23T06:31:08;14.50;90.60
12827;DHT22;66927;48.812;9.118;2023-03-23T06:33:38;14.50;90.60
12827;DHT22;66927;48.812;9.118;2023-03-23T06:36:06;14.50;90.70
12827;DHT22;66927;48.812;9.118;2023-03-23T06:38:32;14.50;90.80
12827;DHT22;66927;48.812;9.118;2023-03-23T06:40:58;14.60;90.70
12827;DHT22;66927;48.812;9.118;2023-03-23T06:43:24;14.50;90.70
12827;DHT22;66927;48.812;9.118;2023-03-23T06:45:50;14.60;90.70
12827;DHT22;66927;48.812;9.118;2023-03-23T06:48:17;14.60;91.00
12827;DHT22;66927;48.812;9.118;2023-03-23T06:50:44;14.70;90.80
12827;DHT22;66927;48.812;9.118;2023-03-23T06:53:11;14.70;90.80
12827;DHT22;66927;48.812;9.118;2023-03-23T06:55:37;14.70;91.00
12827;DHT22;66927;48.812;9.118;2023-03-23T06:58:07;14.80;91.00
12827;DHT22;66927;48.812;9.118;2023-03-23T07:00:33;14.90;91.20
12827;DHT22;66927;48.812;9.118;2023-03-23T07:02:59;15.00;91.50
12827;DHT22;66927;48.812;9.118;2023-03-23T07:05:25;15.00;91.70
12827;DHT22;66927;48.812;9.118;2023-03-23T07:07:51;15.10;91.70
12827;DHT22;66927;48.812;9.118;2023-03-23T07:10:17;15.00;91.50
12827;DHT22;66927;48.812;9.118;2023-03-23T07:12:43;15.00;91.40
12827;DHT22;66927;48.812;9.118;2023-03-23T07:15:09;15.00;91.60
12827;DHT22;66927;48.812;9.118;2023-03-23T07:17:37;14.90;91.30
12827;DHT22;66927;48.812;9.118;2023-03-23T07:20:04;14.90;91.30
12827;DHT22;66927;48.812;9.118;2023-03-23T07:22:30;14.80;91.20
12827;DHT22;66927;48.812;9.118;2023-03-23T07:24:56;14.80;91.40
12827;DHT22;66927;48.812;9.118;2023-03-23T07:27:22;14.80;91.50
12827;DHT22;66927;48.812;9.118;2023-03-23T07:29:48;14.80;92.30
12827;DHT22;66927;48.812;9.118;2023-03-23T07:32:14;14.80;92.50
12827;DHT22;66927;48.812;9.118;2023-03-23T07:34:40;14.80;92.20
12827;DHT22;66927;48.812;9.118;2023-03-23T07:37:07;14.80;92.20
12827;DHT22;66927;48.812;9.118;2023-03-23T07:39:33;14.90;92.50
12827;DHT22;66927;48.812;9.118;2023-03-23T07:41:59;14.90;92.30
12827;DHT22;66927;48.812;9.118;2023-03-23T07:44:25;14.90;92.10
12827;DHT22;66927;48.812;9.118;2023-03-23T07:46:51;15.00;92.00
12827;DHT22;66927;48.812;9.118;2023-03-23T07:49:17;15.10;92.10
12827;DHT22;66927;48.812;9.118;2023-03-23T07:51:44;15.20;91.80
12827;DHT22;66927;48.812;9.118;2023-03-23T07:54:10;15.40;91.60
12827;DHT22;66927;48.812;9.118;2023-03-23T07:56:36;15.50;91.40
12827;DHT22;66927;48.812;9.118;2023-03-23T07:59:05;15.70;91.30
12827;DHT22;66927;48.812;9.118;2023-03-23T08:01:32;15.80;91.40
12827;DHT22;66927;48.812;9.118;2023-03-23T08:03:58;16.00;91.40
12827;DHT22;66927;48.812;9.118;2023-03-23T08:06:25;16.00;91.20
12827;DHT22;66927;48.812;9.118;2023-03-23T08:08:51;16.00;91.30
12827;DHT22;66927;48.812;9.118;2023-03-23T08:11:18;16.10;91.50
12827;DHT22;66927;48.812;9.118;2023-03-23T08:13:45;16.00;91.90
12827;DHT22;66927;48.812;9.118;2023-03-23T08:16:11;16.10;91.40
12827;DHT22;66927;48.812;9.118;2023-03-23T08:18:37;16.10;91.30
12827;DHT22;66927;48.812;9.118;2023-03-23T08:21:05;16.00;91.50
12827;DHT22;66927;48.812;9.118;2023-03-23T08:23:41;16.00;91.80
12827;DHT22;66927;48.812;9.118;2023-03-23T08:26:08;16.10;91.70
12827;DHT22;66927;48.812;9.118;2023-03-23T08:28:34;16.10;92.20
12827;DHT22;66927;48.812;9.118;2023-03-23T08:31:00;16.20;91.90
12827;DHT22;66927;48.812;9.118;2023-03-23T08:33:32;16.30;91.80
12827;DHT22;66927;48.812;9.118;2023-03-23T08:35:59;16.30;92.00
12827;DHT22;66927;48.812;9.118;2023-03-23T08:38:27;16.20;92.10
12827;DHT22;66927;48.812;9.118;2023-03-23T08:40:58;16.40;92.30
12827;DHT22;66927;48.812;9.118;2023-03-23T08:43:24;16.40;92.40
12827;DHT22;66927;48.812;9.118;2023-03-23T08:45:50;16.40;92.60
12827;DHT22;66927;48.812;9.118;2023-03-23T08:48:17;16.30;92.40
12827;DHT22;66927;48.812;9.118;2023-03-23T08:50:43;16.30;92.90
12827;DHT22;66927;48.812;9.118;2023-03-23T08:53:09;16.40;92.60
12827;DHT22;66927;48.812;9.118;2023-03-23T08:55:35;16.20;92.60
12827;DHT22;66927;48.812;9.118;2023-03-23T08:58:01;16.20;92.70
12827;DHT22;66927;48.812;9.118;2023-03-23T09:00:29;16.00;93.20
12827;DHT22;66927;48.812;9.118;2023-03-23T09:02:54;15.80;93.50
12827;DHT22;66927;48.812;9.118;2023-03-23T09:05:24;15.70;93.80
12827;DHT22;66927;48.812;9.118;2023-03-23T09:07:51;15.60;94.00
12827;DHT22;66927;48.812;9.118;2023-03-23T09:10:18;15.50;94.20
12827;DHT22;66927;48.812;9.118;2023-03-23T09:12:45;15.50;94.30
12827;DHT22;66927;48.812;9.118;2023-03-23T09:15:14;15.60;94.20
12827;DHT22;66927;48.812;9.118;2023-03-23T09:17:47;15.50;94.40
12827;DHT22;66927;48.812;9.118;2023-03-23T09:20:16;15.50;94.40
12827;DHT22;66927;48.812;9.118;2023-03-23T09:22:44;15.50;94.50
12827;DHT22;66927;48.812;9.118;2023-03-23T09:25:12;15.60;94.40
12827;DHT22;66927;48.812;9.118;2023-03-23T09:27:42;15.60;94.30
12827;DHT22;66927;48.812;9.118;2023-03-23T09:30:12;15.70;94.50
12827;DHT22;66927;48.812;9.118;2023-03-23T09:32:39;15.80;94.40
12827;DHT22;66927;48.812;9.118;2023-03-23T09:35:07;16.00;94.40
12827;DHT22;66927;48.812;9.118;2023-03-23T09:37:34;16.20;94.10
12827;DHT22;66927;48.812;9.118;2023-03-23T09:40:04;16.30;94.00
12827;DHT22;66927;48.812;9.118;2023-03-23T09:42:40;16.40;93.60
12827;DHT22;66927;48.812;9.118;2023-03-23T09:45:17;16.60;93.40
12827;DHT22;66927;48.812;9.118;2023-03-23T09:50:38;16.60;93.00
12827;DHT22;66927;48.812;9.118;2023-03-23T09:55:42;16.80;93.20
12827;DHT22;66927;48.812;9.118;2023-03-23T09:58:52;17.00;93.00
12827;DHT22;66927;48.812;9.118;2023-03-23T10:01:35;17.10;92.80
12827;DHT22;66927;48.812;9.118;2023-03-23T10:04:21;17.40;92.50
12827;DHT22;66927;48.812;9.118;2023-03-23T10:06:49;17.50;92.00
12827;DHT22;66927;48.812;9.118;2023-03-23T10:09:18;17.40;92.00
12827;DHT22;66927;48.812;9.118;2023-03-23T10:20:48;17.60;92.10
12827;DHT22;66927;48.812;9.118;2023-03-23T10:28:37;18.20;91.80
12827;DHT22;66927;48.812;9.118;2023-03-23T10:31:07;17.90;92.00
12827;DHT22;66927;48.812;9.118;2023-03-23T10:33:44;17.80;92.00
12827;DHT22;66927;48.812;9.118;2023-03-23T10:36:16;18.20;91.90
12827;DHT22;66927;48.812;9.118;2023-03-23T10:39:08;18.30;91.50
12827;DHT22;66927;48.812;9.118;2023-03-23T10:41:35;18.10;91.90
12827;DHT22;66927;48.812;9.118;2023-03-23T10:44:03;17.90;92.10
12827;DHT22;66927;48.812;9.118;2023-03-23T10:46:54;18.00;92.00
12827;DHT22;66927;48.812;9.118;2023-03-23T10:49:25;18.00;92.40
12827;DHT22;66927;48.812;9.118;2023-03-23T10:54:38;18.40;92.20
12827;DHT22;66927;48.812;9.118;2023-03-23T10:57:27;18.70;92.20
12827;DHT22;66927;48.812;9.118;2023-03-23T11:00:05;19.00;91.40
12827;DHT22;66927;48.812;9.118;2023-03-23T11:02:41;19.00;91.30
12827;DHT22;66927;48.812;9.118;2023-03-23T11:05:21;18.90;90.90
12827;DHT22;66927;48.812;9.118;2023-03-23T11:07:56;18.90;91.30
12827;DHT22;66927;48.812;9.118;2023-03-23T11:10:26;18.60;91.30
12827;DHT22;66927;48.812;9.118;2023-03-23T11:12:56;18.50;91.60
12827;DHT22;66927;48.812;9.118;2023-03-23T11:15:36;18.50;91.60
12827;DHT22;66927;48.812;9.118;2023-03-23T11:18:08;18.50;91.70
12827;DHT22;66927;48.812;9.118;2023-03-23T11:20:41;18.60;91.90
12827;DHT22;66927;48.812;9.118;2023-03-23T11:23:15;18.70;91.80
12827;DHT22;66927;48.812;9.118;2023-03-23T11:26:21;18.50;92.10
12827;DHT22;66927;48.812;9.118;2023-03-23T11:28:53;18.10;92.30
12827;DHT22;66927;48.812;9.118;2023-03-23T11:31:34;18.00;91.90
12827;DHT22;66927;48.812;9.118;2023-03-23T11:34:01;17.90;92.20
12827;DHT22;66927;48.812;9.118;2023-03-23T11:36:37;17.80;92.30
12827;DHT22;66927;48.812;9.118;2023-03-23T11:42:16;18.30;91.80
12827;DHT22;66927;48.812;9.118;2023-03-23T11:44:43;18.90;90.60
12827;DHT22;66927;48.812;9.118;2023-03-23T11:50:43;18.90;90.10
12827;DHT22;66927;48.812;9.118;2023-03-23T11:56:23;18.30;90.30
12827;DHT22;66927;48.812;9.118;2023-03-23T11:58:49;18.00;90.80
12827;DHT22;66927;48.812;9.118;2023-03-23T12:01:35;17.90;91.40
12827;DHT22;66927;48.812;9.118;2023-03-23T12:07:41;18.00;91.30
12827;DHT22;66927;48.812;9.118;2023-03-23T12:12:53;18.30;90.50
12827;DHT22;66927;48.812;9.118;2023-03-23T12:15:32;18.30;90.30
12827;DHT22;66927;48.812;9.118;2023-03-23T12:23:08;18.50;90.60
12827;DHT22;66927;48.812;9.118;2023-03-23T12:31:28;18.90;89.20
12827;DHT22;66927;48.812;9.118;2023-03-23T12:42:30;21.40;85.20
12827;DHT22;66927;48.812;9.118;2023-03-23T12:45:22;22.20;81.40
12827;DHT22;66927;48.812;9.118;2023-03-23T12:48:01;23.00;79.10
12827;DHT22;66927;48.812;9.118;2023-03-23T12:50:34;22.90;80.70
12827;DHT22;66927;48.812;9.118;2023-03-23T12:53:13;22.50;79.40
12827;DHT22;66927;48.812;9.118;2023-03-23T12:55:46;22.20;79.70
12827;DHT22;66927;48.812;9.118;2023-03-23T12:58:26;21.50;80.80
12827;DHT22;66927;48.812;9.118;2023-03-23T13:04:17;21.50;83.00
12827;DHT22;66927;48.812;9.118;2023-03-23T13:06:46;21.30;81.00
12827;DHT22;66927;48.812;9.118;2023-03-23T13:11:54;21.00;82.40
12827;DHT22;66927;48.812;9.118;2023-03-23T13:22:55;21.50;80.20
12827;DHT22;66927;48.812;9.118;2023-03-23T13:28:20;21.90;79.60
12827;DHT22;66927;48.812;9.118;2023-03-23T13:31:03;21.90;78.90
12827;DHT22;66927;48.812;9.118;2023-03-23T13:33:31;21.60;79.80
12827;DHT22;66927;48.812;9.118;2023-03-23T13:36:07;21.70;80.70
12827;DHT22;66927;48.812;9.118;2023-03-23T13:38:34;21.90;79.80
12827;DHT22;66927;48.812;9.118;2023-03-23T13:41:10;21.70;79.70
12827;DHT22;66927;48.812;9.118;2023-03-23T13:43:38;21.80;80.60
12827;DHT22;66927;48.812;9.118;2023-03-23T13:46:12;21.80;79.60
12827;DHT22;66927;48.812;9.118;2023-03-23T13:48:51;21.90;80.40
12827;DHT22;66927;48.812;9.118;2023-03-23T13:54:23;21.70;80.40
12827;DHT22;66927;48.812;9.118;2023-03-23T13:56:55;21.40;81.00
12827;DHT22;66927;48.812;9.118;2023-03-23T14:02:21;21.00;83.80
12827;DHT22;66927;48.812;9.118;2023-03-23T14:04:42;20.60;84.10
12827;DHT22;66927;48.812;9.118;2023-03-23T14:07:15;20.20;84.10
12827;DHT22;66927;48.812;9.118;2023-03-23T14:09:44;20.00;84.00
12827;DHT22;66927;48.812;9.118;2023-03-23T14:12:26;19.80;83.20
12827;DHT22;66927;48.812;9.118;2023-03-23T14:14:59;19.40;85.10
12827;DHT22;66927;48.812;9.118;2023-03-23T14:17:33;19.30;85.10
12827;DHT22;66927;48.812;9.118;2023-03-23T14:20:00;19.30;85.70
12827;DHT22;66927;48.812;9.118;2023-03-23T14:22:37;19.20;85.80
12827;DHT22;66927;48.812;9.118;2023-03-23T14:25:16;19.10;86.60
12827;DHT22;66927;48.812;9.118;2023-03-23T14:27:43;19.00;87.40
12827;DHT22;66927;48.812;9.118;2023-03-23T14:30:20;19.00;86.70
12827;DHT22;66927;48.812;9.118;2023-03-23T14:32:47;18.90;86.70
12827;DHT22;66927;48.812;9.118;2023-03-23T14:35:29;19.00;86.70
12827;DHT22;66927;48.812;9.118;2023-03-23T14:37:56;19.00;87.00
12827;DHT22;66927;48.812;9.118;2023-03-23T14:40:23;19.20;85.30
12827;DHT22;66927;48.812;9.118;2023-03-23T14:42:51;19.10;85.90
12827;DHT22;66927;48.812;9.118;2023-03-23T14:45:20;19.10;86.10
12827;DHT22;66927;48.812;9.118;2023-03-23T14:47:49;19.10;86.20
12827;DHT22;66927;48.812;9.118;2023-03-23T14:50:37;18.80;87.00
12827;DHT22;66927;48.812;9.118;2023-03-23T14:55:53;19.00;84.60
12827;DHT22;66927;48.812;9.118;2023-03-23T14:58:22;18.90;84.50
12827;DHT22;66927;48.812;9.118;2023-03-23T15:03:20;18.50;85.60
12827;DHT22;66927;48.812;9.118;2023-03-23T15:05:56;18.40;86.20
12827;DHT22;66927;48.812;9.118;2023-03-23T15:08:29;18.50;86.20
12827;DHT22;66927;48.812;9.118;2023-03-23T15:13:35;18.50;85.50
12827;DHT22;66927;48.812;9.118;2023-03-23T15:16:11;18.50;85.50
12827;DHT22;66927;48.812;9.118;2023-03-23T15:18:40;18.60;85.70
12827;DHT22;66927;48.812;9.118;2023-03-23T15:21:23;18.60;85.20
12827;DHT22;66927;48.812;9.118;2023-03-23T15:23:49;18.70;84.10
12827;DHT22;66927;48.812;9.118;2023-03-23T15:31:54;18.20;84.50
12827;DHT22;66927;48.812;9.118;2023-03-23T15:34:34;17.90;84.80
12827;DHT22;66927;48.812;9.118;2023-03-23T15:37:17;17.90;85.20
12827;DHT22;66927;48.812;9.118;2023-03-23T15:39:44;17.70;85.20
12827;DHT22;66927;48.812;9.118;2023-03-23T15:42:22;17.70;85.70
12827;DHT22;66927;48.812;9.118;2023-03-23T15:47:47;17.60;84.80
12827;DHT22;66927;48.812;9.118;2023-03-23T15:50:15;17.60;84.50
12827;DHT22;66927;48.812;9.118;2023-03-23T15:52:41;17.50;84.60
12827;DHT22;66927;48.812;9.118;2023-03-23T15:55:37;17.50;85.30
12827;DHT22;66927;48.812;9.118;2023-03-23T15:58:11;17.50;85.00
12827;DHT22;66927;48.812;9.118;2023-03-23T16:00:38;17.50;84.60
12827;DHT22;66927;48.812;9.118;2023-03-23T16:03:06;17.40;85.40
12827;DHT22;66927;48.812;9.118;2023-03-23T16:05:33;17.40;85.40
12827;DHT22;66927;48.812;9.118;2023-03-23T16:07:59;17.30;84.90
12827;DHT22;66927;48.812;9.118;2023-03-23T16:10:27;17.30;84.90
12827;DHT22;66927;48.812;9.118;2023-03-23T16:12:53;17.30;85.30
12827;DHT22;66927;48.812;9.118;2023-03-23T16:15:19;17.20;86.00
12827;DHT22;66927;48.812;9.118;2023-03-23T16:17:45;17.10;86.20
12827;DHT22;66927;48.812;9.118;2023-03-23T16:20:15;17.10;86.40
12827;DHT22;66927;48.812;9.118;2023-03-23T16:22:41;17.10;86.30
12827;DHT22;66927;48.812;9.118;2023-03-23T16:25:07;17.00;86.70
12827;DHT22;66927;48.812;9.118;2023-03-23T16:27:33;17.00;86.80
12827;DHT22;66927;48.812;9.118;2023-03-23T16:30:00;17.10;86.30
12827;DHT22;66927;48.812;9.118;2023-03-23T16:32:28;17.10;87.00
12827;DHT22;66927;48.812;9.118;2023-03-23T16:34:53;17.00;87.30
12827;DHT22;66927;48.812;9.118;2023-03-23T16:37:20;16.90;88.10
12827;DHT22;66927;48.812;9.118;2023-03-23T16:39:46;16.90;87.50
12827;DHT22;66927;48.812;9.118;2023-03-23T16:42:11;16.90;87.70
12827;DHT22;66927;48.812;9.118;2023-03-23T16:44:37;16.80;88.30
12827;DHT22;66927;48.812;9.118;2023-03-23T16:47:03;16.70;88.30
12827;DHT22;66927;48.812;9.118;2023-03-23T16:49:29;16.60;88.20
12827;DHT22;66927;48.812;9.118;2023-03-23T16:51:55;16.80;87.90
12827;DHT22;66927;48.812;9.118;2023-03-23T16:54:20;16.80;88.40
12827;DHT22;66927;48.812;9.118;2023-03-23T16:56:46;16.70;88.00
12827;DHT22;66927;48.812;9.118;2023-03-23T16:59:13;16.60;88.70
12827;DHT22;66927;48.812;9.118;2023-03-23T17:01:45;16.60;89.00
12827;DHT22;66927;48.812;9.118;2023-03-23T17:04:11;16.50;89.30
12827;DHT22;66927;48.812;9.118;2023-03-23T17:06:36;16.40;89.50
12827;DHT22;66927;48.812;9.118;2023-03-23T17:09:02;16.40;89.80
12827;DHT22;66927;48.812;9.118;2023-03-23T17:11:28;16.40;89.70
12827;DHT22;66927;48.812;9.118;2023-03-23T17:13:57;16.50;89.30
12827;DHT22;66927;48.812;9.118;2023-03-23T17:16:24;16.40;89.30
12827;DHT22;66927;48.812;9.118;2023-03-23T17:21:53;16.40;89.30
12827;DHT22;66927;48.812;9.118;2023-03-23T17:24:21;16.40;89.50
12827;DHT22;66927;48.812;9.118;2023-03-23T17:26:52;16.40;89.60
12827;DHT22;66927;48.812;9.118;2023-03-23T17:29:20;16.40;89.60
12827;DHT22;66927;48.812;9.118;2023-03-23T17:31:47;16.30;89.90
12827;DHT22;66927;48.812;9.118;2023-03-23T17:34:13;16.30;89.90
12827;DHT22;66927;48.812;9.118;2023-03-23T17:36:39;16.30;90.00
12827;DHT22;66927;48.812;9.118;2023-03-23T17:39:05;16.30;90.20
12827;DHT22;66927;48.812;9.118;2023-03-23T17:41:31;16.30;90.00